Airfield :
LOGIN :

Register | Disclaimer

   EN    FR    IT 

 










Legend :    VFR   Marginal VFR   IFR   Intensive IFR   Very Intensive IFR
Visi :
Ceiling :
>= 8 km
>= 3000ft
5 to 8 km
1000 to 3000 ft
1500m to 5 km
500 to 1000 ft
800 to 1500m
200 to 500 ft
< 800m
< 200 ft
Symbols :   Thunderstorms  Fog  Heavy snow  Heavy precipitations  Wind > 20 kt
SIGMETs :     Misc.  Thunderstorms  Icing  Turbulence  Mountain Waves  Volcanic Ashes






- Airport Elevation : 313 ft
- IATA code : LEH


LFOH - Le Havre Octeville

CURRENT METAR :
  • 211330Z AUTO 35010KT 9999 FEW009 BKN018 BKN025 13/11 Q1019 NOSIG

EXPIRED METARs :
  • 211300Z AUTO 35007KT 9999 FEW010 BKN015 BKN026 13/11 Q1019 TEMPO BKN007
  • 211230Z AUTO 36007KT 9999 -DZ FEW015 SCT023 BKN028 12/11 Q1019 TEMPO BKN007
  • 211200Z AUTO 31006KT 270V350 5000 -RA BR BKN015 BKN020 OVC026 12/10 Q1019 TEMPO BKN007
  • 211130Z AUTO 36005KT 330V040 9999 BKN017 OVC026 13/10 Q1018 TEMPO BKN007
  • 211100Z AUTO 36011KT 9999 BKN017 BKN024 BKN031 13/10 Q1018 TEMPO BKN007

TAF TAF LFOH
Valid from the 21 at 12:00 until the 22 at 12:00 UTC


211100Z 2112/2212 34012KT 9999 BKN018
PROB40
TEMPO 2112/2114 BKN007
BECMG 2114/2118 VRB02KT
PROB30
TEMPO 2123/2203 3000 SHRA BKN013
TEMPO 2203/2212 OVC002
ATIS : +33 2 35 54 64 93



MET'MAP, your aeronautical weather chart ! - Copyright ORBIFLY December 2007 - Disclaimer

ORBIFLY MET'MAP TEAM :

Programming & Development : Alexandra Zaïnal
Concept & Development : Baudouin d'Aumeries
Co-Development & Prog : Marc-Olivier Méhu
Technical & hardware support : Manuel Goepfert

Contact : metmap@orbifly.com




SOURCES & CREDITS :

   NOAA